createdAt,value
2022-08-25T00:02:00.150Z,4.77
2022-08-25T00:04:29.533Z,6.03
2022-08-25T00:07:02.115Z,6.30
2022-08-25T00:09:30.789Z,6.83
2022-08-25T00:11:57.991Z,6.70
2022-08-25T00:14:29.548Z,10.93
2022-08-25T00:16:56.591Z,5.97
2022-08-25T00:19:26.882Z,7.93
2022-08-25T00:21:55.900Z,7.60
2022-08-25T00:24:23.747Z,5.50
2022-08-25T00:26:53.055Z,5.50
2022-08-25T00:29:19.786Z,7.83
2022-08-25T00:31:46.801Z,6.40
2022-08-25T00:34:18.840Z,10.03
2022-08-25T00:36:46.052Z,8.77
2022-08-25T00:39:12.735Z,6.17
2022-08-25T00:41:41.719Z,5.77
2022-08-25T00:44:10.364Z,10.50
2022-08-25T00:46:42.130Z,10.23
2022-08-25T00:49:17.921Z,5.53
2022-08-25T00:51:56.317Z,5.43
2022-08-25T00:54:28.022Z,8.83
2022-08-25T00:56:56.627Z,7.07
2022-08-25T00:59:25.813Z,6.50
2022-08-25T01:01:54.088Z,7.30
2022-08-25T01:04:21.200Z,6.03
2022-08-25T01:06:48.907Z,6.40
2022-08-25T01:09:17.340Z,8.70
2022-08-25T01:11:45.977Z,6.90
2022-08-25T01:14:16.546Z,10.83
2022-08-25T01:16:46.336Z,5.90
2022-08-25T01:19:17.587Z,9.50
2022-08-25T01:21:48.487Z,8.50
2022-08-25T01:24:43.129Z,5.30
2022-08-25T01:27:10.236Z,11.73
2022-08-25T01:29:37.737Z,7.57
2022-08-25T01:32:07.819Z,5.37
2022-08-25T01:34:38.401Z,5.80
2022-08-25T01:37:05.405Z,6.10
2022-08-25T01:39:36.927Z,9.07
2022-08-25T01:42:09.471Z,5.93
2022-08-25T01:44:39.104Z,6.90
2022-08-25T01:47:07.151Z,6.57
2022-08-25T01:49:33.774Z,8.90
2022-08-25T01:52:07.139Z,6.23
2022-08-25T01:54:33.770Z,6.20
2022-08-25T01:57:00.380Z,6.90
2022-08-25T01:59:27.512Z,6.70
2022-08-25T02:01:59.671Z,6.67
2022-08-25T02:04:29.383Z,7.60
2022-08-25T02:06:55.863Z,5.30
2022-08-25T02:09:22.224Z,6.70
2022-08-25T02:11:48.765Z,6.33
2022-08-25T02:14:16.195Z,8.43
2022-08-25T02:16:49.882Z,5.90
2022-08-25T02:19:17.455Z,8.33
2022-08-25T02:21:43.940Z,7.07
2022-08-25T02:24:11.679Z,6.30
2022-08-25T02:26:38.585Z,6.17
2022-08-25T02:29:07.406Z,7.50
2022-08-25T02:31:34.387Z,9.20
2022-08-25T02:34:02.216Z,6.90
2022-08-25T02:36:29.162Z,7.20
2022-08-25T02:38:55.577Z,6.40
2022-08-25T02:41:27.767Z,7.77
2022-08-25T02:43:58.167Z,11.63
2022-08-25T02:46:24.979Z,9.97
2022-08-25T02:48:53.082Z,11.20
2022-08-25T02:51:21.947Z,10.10
2022-08-25T02:53:48.850Z,6.93
2022-08-25T02:56:16.600Z,7.53
2022-08-25T02:58:43.124Z,8.47
2022-08-25T03:01:12.962Z,9.43
2022-08-25T03:03:40.520Z,8.23
2022-08-25T03:06:09.742Z,6.73
2022-08-25T03:08:37.725Z,7.27
2022-08-25T03:11:05.371Z,6.93
2022-08-25T03:13:32.716Z,10.23
2022-08-25T03:16:00.237Z,6.20
2022-08-25T03:18:27.654Z,10.43
2022-08-25T03:20:54.768Z,8.03
2022-08-25T03:23:21.205Z,7.30
2022-08-25T03:26:06.202Z,9.43
2022-08-25T03:28:33.196Z,7.83
2022-08-25T03:31:01.105Z,8.80
2022-08-25T03:33:30.335Z,10.17
2022-08-25T03:35:57.477Z,6.83
2022-08-25T03:38:25.602Z,6.60
2022-08-25T03:40:52.759Z,7.47
2022-08-25T03:43:20.491Z,12.23
2022-08-25T03:45:48.018Z,7.20
2022-08-25T03:48:16.079Z,7.40
2022-08-25T03:50:50.610Z,8.70
2022-08-25T03:53:19.660Z,6.90
2022-08-25T03:55:46.144Z,6.03
2022-08-25T03:58:12.627Z,9.67
2022-08-25T04:00:39.275Z,7.90
2022-08-25T04:03:06.047Z,7.90
2022-08-25T04:05:32.956Z,8.13
2022-08-25T04:08:01.692Z,7.73
2022-08-25T04:10:28.753Z,7.20
2022-08-25T04:12:55.990Z,7.87
2022-08-25T04:15:23.979Z,9.07
2022-08-25T04:17:55.208Z,6.00
2022-08-25T04:20:22.181Z,8.27
2022-08-25T04:22:48.605Z,6.77
2022-08-25T04:25:15.065Z,6.97
2022-08-25T04:27:42.177Z,10.20
2022-08-25T04:30:10.041Z,6.87
2022-08-25T04:32:37.204Z,7.23
2022-08-25T04:35:05.225Z,7.17
2022-08-25T04:37:31.830Z,7.47
2022-08-25T04:39:58.258Z,10.10
2022-08-25T04:42:26.408Z,8.63
2022-08-25T04:44:53.373Z,7.47
2022-08-25T04:47:20.026Z,8.23
2022-08-25T04:49:46.405Z,9.10
2022-08-25T04:52:13.166Z,7.10
2022-08-25T04:54:41.141Z,8.63
2022-08-25T04:57:07.714Z,8.77
2022-08-25T04:59:34.092Z,8.10
2022-08-25T05:02:05.331Z,12.00
2022-08-25T05:04:33.707Z,8.60
2022-08-25T05:07:01.124Z,8.40
2022-08-25T05:09:28.169Z,7.90
2022-08-25T05:11:55.286Z,8.90
2022-08-25T05:14:25.676Z,7.90
2022-08-25T05:16:54.874Z,7.77
2022-08-25T05:19:21.383Z,7.23
2022-08-25T05:21:48.114Z,11.30
2022-08-25T05:24:14.532Z,7.37
2022-08-25T05:26:41.122Z,7.33
2022-08-25T05:29:07.607Z,7.17
2022-08-25T05:31:40.865Z,9.10
2022-08-25T05:34:09.344Z,10.23
2022-08-25T05:36:35.937Z,8.73
2022-08-25T05:39:03.659Z,11.60
2022-08-25T05:41:31.247Z,12.60
2022-08-25T05:43:58.067Z,9.77
2022-08-25T05:46:24.965Z,9.63
2022-08-25T05:48:51.994Z,8.33
2022-08-25T05:51:18.736Z,9.63
2022-08-25T05:53:47.777Z,7.33
2022-08-25T05:56:14.710Z,7.43
2022-08-25T05:58:43.109Z,8.70
2022-08-25T06:01:29.038Z,13.90
2022-08-25T06:03:55.546Z,11.53
2022-08-25T06:06:24.371Z,7.90
2022-08-25T06:08:51.485Z,8.50
2022-08-25T06:11:17.931Z,10.53
2022-08-25T06:13:45.695Z,7.57
2022-08-25T06:16:12.354Z,12.80
2022-08-25T06:18:38.894Z,8.97
2022-08-25T06:21:13.802Z,11.53
2022-08-25T06:23:41.058Z,7.87
2022-08-25T06:26:10.068Z,15.13
2022-08-25T06:28:39.815Z,9.17
2022-08-25T06:31:06.310Z,10.03
2022-08-25T06:33:32.895Z,7.90
2022-08-25T06:35:59.867Z,9.70
2022-08-25T06:38:26.618Z,10.50
2022-08-25T06:40:53.498Z,11.60
2022-08-25T06:43:21.164Z,13.77
2022-08-25T06:45:48.392Z,13.20
2022-08-25T06:48:15.039Z,9.50
2022-08-25T06:50:42.159Z,13.97
2022-08-25T06:53:09.506Z,11.80
2022-08-25T06:55:36.248Z,12.47
2022-08-25T06:58:03.595Z,13.17
2022-08-25T07:00:31.691Z,8.30
2022-08-25T07:02:58.969Z,12.40
2022-08-25T07:05:33.458Z,15.33
2022-08-25T07:08:00.810Z,14.20
2022-08-25T07:10:27.247Z,14.10
2022-08-25T07:12:57.334Z,14.60
2022-08-25T07:15:23.832Z,14.47
2022-08-25T07:17:50.696Z,14.67
2022-08-25T07:20:19.147Z,18.33
2022-08-25T07:22:45.946Z,14.17
2022-08-25T07:25:12.396Z,16.03
2022-08-25T07:27:39.764Z,18.97
2022-08-25T07:30:09.624Z,16.40
2022-08-25T07:32:37.779Z,17.30
2022-08-25T07:38:10.246Z,14.70
2022-08-25T07:40:42.888Z,15.77
2022-08-25T07:43:10.231Z,14.23
2022-08-25T07:45:49.229Z,16.07
2022-08-25T07:48:18.313Z,16.00
2022-08-25T07:50:45.707Z,14.80
2022-08-25T07:53:13.657Z,19.00
2022-08-25T07:55:41.947Z,12.97
2022-08-25T07:58:12.381Z,13.60
2022-08-25T08:00:39.527Z,15.87
2022-08-25T08:03:19.903Z,10.30
2022-08-25T08:05:57.214Z,9.50
2022-08-25T08:08:23.625Z,9.20
2022-08-25T08:11:05.696Z,10.97
2022-08-25T08:13:36.791Z,11.30
2022-08-25T08:16:09.443Z,14.10
2022-08-25T08:18:36.051Z,9.73
2022-08-25T08:21:02.423Z,8.77
2022-08-25T08:23:30.521Z,10.97
2022-08-25T08:25:57.082Z,9.63
2022-08-25T08:28:27.930Z,9.20
2022-08-25T08:30:54.356Z,10.30
2022-08-25T08:33:23.452Z,7.33
2022-08-25T08:36:09.035Z,7.67
2022-08-25T08:38:37.443Z,7.17
2022-08-25T08:42:09.737Z,9.63
2022-08-25T08:44:42.477Z,9.63
2022-08-25T08:47:40.230Z,12.80
2022-08-25T08:50:21.630Z,10.07
2022-08-25T08:52:58.964Z,14.57
2022-08-25T08:55:32.348Z,9.00
2022-08-25T08:58:03.053Z,9.80
2022-08-25T09:00:33.003Z,9.07
2022-08-25T09:03:09.903Z,9.50
2022-08-25T09:05:46.826Z,10.80
2022-08-25T09:08:20.296Z,10.00
2022-08-25T09:10:54.988Z,9.83
2022-08-25T09:13:41.189Z,10.93
2022-08-25T09:16:34.398Z,10.80
2022-08-25T09:19:21.236Z,11.87
2022-08-25T09:22:35.024Z,10.43
2022-08-25T09:25:53.136Z,10.10
2022-08-25T09:28:24.563Z,14.47
2022-08-25T09:30:54.668Z,11.77
2022-08-25T09:33:24.755Z,11.23
2022-08-25T09:35:53.830Z,15.37
2022-08-25T09:38:20.769Z,11.30
2022-08-25T09:40:50.329Z,11.30
2022-08-25T09:43:24.582Z,9.80
2022-08-25T09:45:59.711Z,10.47
2022-08-25T09:48:39.798Z,15.20
2022-08-25T09:51:15.016Z,11.60
2022-08-25T09:53:51.051Z,9.63
2022-08-25T09:56:21.351Z,10.13
2022-08-25T09:58:48.586Z,12.00
2022-08-25T10:01:19.532Z,8.37
2022-08-25T10:03:59.852Z,8.83
2022-08-25T10:06:30.960Z,12.77
2022-08-25T10:09:06.501Z,10.13
2022-08-25T10:11:38.431Z,15.07
2022-08-25T10:14:35.666Z,10.70
2022-08-25T10:17:27.786Z,13.37
2022-08-25T10:20:11.217Z,8.97
2022-08-25T10:22:40.412Z,8.87
2022-08-25T10:25:10.565Z,10.53
2022-08-25T10:27:53.856Z,9.57
2022-08-25T10:30:28.017Z,9.77
2022-08-25T10:33:06.801Z,12.00
2022-08-25T10:35:57.191Z,10.47
2022-08-25T10:38:34.787Z,10.00
2022-08-25T10:41:24.841Z,9.23
2022-08-25T10:44:04.619Z,10.97
2022-08-25T10:46:44.075Z,9.90
2022-08-25T10:49:46.551Z,9.37
2022-08-25T10:52:30.640Z,9.33
2022-08-25T10:55:32.328Z,11.07
2022-08-25T10:58:30.770Z,9.27
2022-08-25T11:01:28.846Z,9.17
2022-08-25T11:04:02.085Z,11.40
2022-08-25T11:06:53.078Z,9.47
2022-08-25T11:09:30.803Z,9.43
2022-08-25T11:12:01.334Z,10.03
2022-08-25T11:14:34.912Z,9.97
2022-08-25T11:17:12.006Z,14.10
2022-08-25T11:19:43.898Z,13.70
2022-08-25T11:22:25.501Z,13.90
2022-08-25T11:25:20.186Z,9.53
2022-08-25T11:27:58.124Z,11.60
2022-08-25T11:30:25.774Z,15.70
2022-08-25T11:32:54.159Z,8.57
2022-08-25T11:35:31.552Z,11.37
2022-08-25T11:38:06.982Z,9.30
2022-08-25T11:41:02.226Z,9.03
2022-08-25T11:44:09.816Z,9.07
2022-08-25T11:46:45.727Z,11.67
2022-08-25T11:49:31.660Z,8.77
2022-08-25T11:52:03.013Z,8.23
2022-08-25T11:54:36.445Z,8.90
2022-08-25T11:57:19.424Z,11.40
2022-08-25T11:59:57.811Z,8.10
2022-08-25T12:02:32.813Z,9.23
2022-08-25T12:04:59.855Z,11.13
2022-08-25T12:07:50.081Z,7.00
2022-08-25T12:10:20.902Z,9.67
2022-08-25T12:13:02.222Z,6.47
2022-08-25T12:15:31.272Z,6.10
2022-08-25T12:18:45.853Z,6.10
2022-08-25T12:21:15.027Z,8.47
2022-08-25T12:24:04.700Z,7.33
2022-08-25T12:26:55.119Z,6.83
2022-08-25T12:30:05.226Z,11.70
2022-08-25T12:33:06.027Z,8.47
2022-08-25T12:35:55.361Z,8.27
2022-08-25T12:38:46.376Z,6.93
2022-08-25T12:41:22.052Z,6.50
2022-08-25T12:43:53.163Z,5.90
2022-08-25T12:46:19.552Z,6.30
2022-08-25T12:49:11.377Z,7.40
2022-08-25T12:51:54.888Z,8.03
2022-08-25T12:55:05.481Z,9.40
2022-08-25T12:57:44.673Z,7.90
2022-08-25T13:03:20.178Z,7.37
2022-08-25T13:06:05.803Z,6.10
2022-08-25T13:08:59.272Z,7.90
2022-08-25T13:11:48.092Z,5.93
2022-08-25T13:14:52.654Z,5.73
2022-08-25T13:17:34.431Z,5.37
2022-08-25T13:20:26.977Z,7.53
2022-08-25T13:22:59.366Z,7.00
2022-08-25T13:25:32.116Z,5.10
2022-08-25T13:28:03.120Z,5.40
2022-08-25T13:30:31.812Z,8.43
2022-08-25T13:32:58.908Z,5.80
2022-08-25T13:35:32.922Z,5.00
2022-08-25T13:38:16.076Z,6.17
2022-08-25T13:40:43.197Z,5.07
2022-08-25T13:43:13.573Z,5.00
2022-08-25T13:45:48.189Z,4.43
2022-08-25T13:48:34.735Z,4.30
2022-08-25T13:51:09.915Z,5.80
2022-08-25T13:53:37.521Z,5.50
2022-08-25T13:56:04.436Z,5.40
2022-08-25T13:58:45.705Z,7.00
2022-08-25T14:01:22.861Z,6.10
2022-08-25T14:04:31.390Z,9.93
2022-08-25T14:07:08.909Z,5.27
2022-08-25T14:09:58.323Z,9.00
2022-08-25T14:12:41.800Z,6.43
2022-08-25T14:15:17.200Z,5.33
2022-08-25T14:18:05.901Z,5.57
2022-08-25T14:20:35.752Z,5.20
2022-08-25T14:23:16.241Z,5.40
2022-08-25T14:25:47.293Z,5.83
2022-08-25T14:28:18.300Z,5.30
2022-08-25T14:30:52.967Z,5.73
2022-08-25T14:33:23.962Z,5.13
2022-08-25T14:35:53.750Z,5.63
2022-08-25T14:38:21.699Z,5.63
2022-08-25T14:40:50.272Z,8.47
2022-08-25T14:43:16.983Z,6.13
2022-08-25T14:45:46.280Z,5.53
2022-08-25T14:48:39.141Z,5.37
2022-08-25T14:51:05.932Z,7.77
2022-08-25T14:53:33.400Z,7.63
2022-08-25T14:56:00.795Z,6.37
2022-08-25T14:58:35.120Z,6.00
2022-08-25T15:01:17.205Z,8.07
2022-08-25T15:03:48.330Z,5.57
2022-08-25T15:06:16.734Z,5.80
2022-08-25T15:09:02.514Z,8.10
2022-08-25T15:11:30.790Z,8.70
2022-08-25T15:13:58.296Z,7.57
2022-08-25T15:16:34.005Z,5.20
2022-08-25T15:19:05.111Z,6.50
2022-08-25T15:21:34.091Z,5.33
2022-08-25T15:24:02.134Z,5.10
2022-08-25T15:26:28.683Z,7.37
2022-08-25T15:28:55.153Z,5.60
2022-08-25T15:31:21.789Z,8.20
2022-08-25T15:33:48.239Z,5.37
2022-08-25T15:36:22.508Z,5.40
2022-08-25T15:38:51.264Z,5.20
2022-08-25T15:41:18.015Z,8.43
2022-08-25T15:43:44.403Z,4.90
2022-08-25T15:46:16.692Z,9.90
2022-08-25T15:48:43.121Z,5.43
2022-08-25T15:51:09.786Z,5.13
2022-08-25T15:53:36.324Z,6.63
2022-08-25T15:56:06.321Z,5.40
2022-08-25T15:58:35.342Z,8.00
2022-08-25T16:01:02.834Z,8.80
2022-08-25T16:03:29.323Z,7.63
2022-08-25T16:05:55.811Z,4.93
2022-08-25T16:08:22.370Z,5.60
2022-08-25T16:10:49.773Z,5.73
2022-08-25T16:13:16.439Z,8.10
2022-08-25T16:15:53.139Z,6.80
2022-08-25T16:18:24.182Z,6.90
2022-08-25T16:20:50.863Z,5.27
2022-08-25T16:23:21.473Z,7.40
2022-08-25T16:25:48.340Z,11.63
2022-08-25T16:28:17.052Z,7.23
2022-08-25T16:30:52.487Z,6.13
2022-08-25T16:33:19.940Z,7.17
2022-08-25T16:35:47.409Z,7.07
2022-08-25T16:38:15.675Z,7.03
2022-08-25T16:40:43.186Z,4.80
2022-08-25T16:43:10.740Z,5.03
2022-08-25T16:45:37.376Z,5.37
2022-08-25T16:48:05.788Z,9.03
2022-08-25T16:50:32.388Z,5.53
2022-08-25T16:53:19.512Z,6.37
2022-08-25T16:55:50.201Z,5.30
2022-08-25T16:58:17.871Z,5.83
2022-08-25T17:00:45.825Z,7.57
2022-08-25T17:03:12.928Z,7.57
2022-08-25T17:05:41.854Z,6.90
2022-08-25T17:08:31.091Z,7.20
2022-08-25T17:11:11.330Z,7.93
2022-08-25T17:13:40.413Z,11.53
2022-08-25T17:16:11.677Z,6.70
2022-08-25T17:18:38.839Z,5.30
2022-08-25T17:21:09.297Z,5.77
2022-08-25T17:23:39.947Z,9.07
2022-08-25T17:26:14.556Z,9.00
2022-08-25T17:28:41.933Z,8.37
2022-08-25T17:31:09.140Z,6.20
2022-08-25T17:33:36.375Z,5.23
2022-08-25T17:36:05.592Z,8.10
2022-08-25T17:38:33.854Z,5.70
2022-08-25T17:41:03.691Z,5.87
2022-08-25T17:43:31.696Z,4.87
2022-08-25T17:45:58.075Z,5.77
2022-08-25T17:48:25.499Z,7.07
2022-08-25T17:50:53.468Z,5.30
2022-08-25T17:53:20.605Z,7.83
2022-08-25T17:55:58.726Z,6.90
2022-08-25T17:58:25.209Z,5.70
2022-08-25T18:00:54.294Z,6.10
2022-08-25T18:03:21.385Z,8.07
2022-08-25T18:05:49.760Z,5.50
2022-08-25T18:08:18.019Z,7.33
2022-08-25T18:10:47.331Z,5.73
2022-08-25T18:13:14.339Z,7.33
2022-08-25T18:15:42.602Z,5.77
2022-08-25T18:18:09.790Z,6.80
2022-08-25T18:20:39.013Z,5.63
2022-08-25T18:23:09.781Z,5.57
2022-08-25T18:25:36.318Z,5.70
2022-08-25T18:28:03.268Z,7.03
2022-08-25T18:30:29.707Z,5.57
2022-08-25T18:32:56.168Z,7.63
2022-08-25T18:35:26.795Z,7.00
2022-08-25T18:38:12.253Z,7.20
2022-08-25T18:40:39.211Z,8.50
2022-08-25T18:43:09.486Z,7.83
2022-08-25T18:45:47.711Z,5.53
2022-08-25T18:48:16.309Z,10.93
2022-08-25T18:50:44.093Z,6.37
2022-08-25T18:53:11.403Z,6.40
2022-08-25T18:55:39.437Z,6.77
2022-08-25T18:58:07.111Z,7.47
2022-08-25T19:00:34.985Z,7.77
2022-08-25T19:03:01.960Z,7.37
2022-08-25T19:05:33.515Z,5.80
2022-08-25T19:08:01.928Z,5.40
2022-08-25T19:10:30.125Z,7.13
2022-08-25T19:12:58.224Z,9.43
2022-08-25T19:15:29.226Z,10.90
2022-08-25T19:17:57.528Z,7.17
2022-08-25T19:20:24.677Z,7.73
2022-08-25T19:22:52.433Z,5.30
2022-08-25T19:25:21.235Z,6.63
2022-08-25T19:27:49.395Z,6.07
2022-08-25T19:30:17.728Z,6.80
2022-08-25T19:32:46.876Z,10.90
2022-08-25T19:35:49.744Z,5.17
2022-08-25T19:38:34.062Z,6.10
2022-08-25T19:41:02.513Z,8.83
2022-08-25T19:43:33.774Z,6.33
2022-08-25T19:46:00.183Z,8.63
2022-08-25T19:48:26.700Z,10.20
2022-08-25T19:50:56.139Z,6.20
2022-08-25T19:53:23.009Z,7.93
2022-08-25T19:55:49.873Z,5.93
2022-08-25T19:58:16.685Z,5.23
2022-08-25T20:00:47.185Z,7.67
2022-08-25T20:03:17.370Z,10.07
2022-08-25T20:05:43.800Z,6.23
2022-08-25T20:08:10.374Z,8.43
2022-08-25T20:10:41.999Z,10.77
2022-08-25T20:13:09.070Z,6.50
2022-08-25T20:15:39.061Z,7.37
2022-08-25T20:18:06.336Z,9.63
2022-08-25T20:20:34.621Z,9.30
2022-08-25T20:23:21.085Z,6.60
2022-08-25T20:25:50.141Z,6.60
2022-08-25T20:28:18.682Z,12.40
2022-08-25T20:30:45.362Z,10.70
2022-08-25T20:33:12.022Z,8.60
2022-08-25T20:35:38.465Z,5.13
2022-08-25T20:38:05.796Z,12.07
2022-08-25T20:40:32.581Z,11.23
2022-08-25T20:43:03.360Z,9.53
2022-08-25T20:45:29.952Z,6.33
2022-08-25T20:47:56.635Z,17.07
2022-08-25T20:50:23.922Z,8.47
2022-08-25T20:52:51.494Z,6.90
2022-08-25T20:55:19.087Z,7.97
2022-08-25T20:57:46.052Z,14.30
2022-08-25T21:00:12.992Z,7.93
2022-08-25T21:02:39.410Z,10.37
2022-08-25T21:05:06.639Z,7.03
2022-08-25T21:07:35.778Z,7.33
2022-08-25T21:10:05.210Z,11.60
2022-08-25T21:12:31.740Z,8.07
2022-08-25T21:14:58.290Z,9.93
2022-08-25T21:17:24.661Z,8.30
2022-08-25T21:19:51.801Z,5.97
2022-08-25T21:22:18.232Z,10.03
2022-08-25T21:24:45.022Z,6.60
2022-08-25T21:27:11.435Z,8.20
2022-08-25T21:29:38.349Z,6.67
2022-08-25T21:32:11.385Z,8.33
2022-08-25T21:34:38.179Z,8.60
2022-08-25T21:37:05.128Z,7.50
2022-08-25T21:39:33.044Z,6.13
2022-08-25T21:42:00.360Z,9.80
2022-08-25T21:44:28.152Z,9.80
2022-08-25T21:46:55.131Z,8.53
2022-08-25T21:49:22.414Z,7.07
2022-08-25T21:51:59.177Z,9.23
2022-08-25T21:54:26.770Z,9.97
2022-08-25T21:56:59.303Z,13.07
2022-08-25T21:59:32.107Z,8.47
2022-08-25T22:02:05.263Z,6.10
2022-08-25T22:04:32.337Z,9.70
2022-08-25T22:06:59.523Z,7.43
2022-08-25T22:09:28.302Z,7.17
2022-08-25T22:11:56.056Z,6.87
2022-08-25T22:14:23.832Z,6.53
2022-08-25T22:16:53.570Z,10.17
2022-08-25T22:19:21.427Z,8.07
2022-08-25T22:21:50.126Z,6.93
2022-08-25T22:24:17.371Z,8.73
2022-08-25T22:26:47.420Z,6.50
2022-08-25T22:29:20.177Z,7.30
2022-08-25T22:32:00.708Z,9.60
2022-08-25T22:34:32.405Z,7.43
2022-08-25T22:37:00.827Z,8.17
2022-08-25T22:39:28.077Z,8.63
2022-08-25T22:41:55.504Z,9.43
2022-08-25T22:44:22.293Z,7.77
2022-08-25T22:46:49.537Z,18.03
2022-08-25T22:49:15.916Z,16.17
2022-08-25T22:51:42.538Z,14.03
2022-08-25T22:54:09.660Z,17.27
2022-08-25T22:56:37.639Z,17.53
2022-08-25T22:59:08.298Z,14.37
2022-08-25T23:01:35.215Z,14.00
2022-08-25T23:04:03.218Z,14.27
2022-08-25T23:06:30.696Z,17.93
2022-08-25T23:08:58.425Z,19.60
2022-08-25T23:11:25.599Z,15.80
2022-08-25T23:13:57.581Z,14.90
2022-08-25T23:16:25.117Z,17.03
2022-08-25T23:18:52.993Z,13.50
2022-08-25T23:21:41.332Z,13.27
2022-08-25T23:24:11.093Z,11.60
2022-08-25T23:26:42.366Z,12.67
2022-08-25T23:29:18.293Z,12.23
2022-08-25T23:31:46.675Z,12.33
2022-08-25T23:34:13.901Z,10.07
2022-08-25T23:36:40.640Z,14.30
2022-08-25T23:39:07.654Z,13.80
2022-08-25T23:41:34.643Z,15.50
2022-08-25T23:44:05.280Z,9.73
2022-08-25T23:46:33.097Z,9.50
2022-08-25T23:48:59.645Z,11.67
2022-08-25T23:51:29.566Z,9.53
2022-08-25T23:53:57.052Z,9.53
2022-08-25T23:56:26.153Z,11.47
2022-08-25T23:58:55.148Z,12.13
